sensor_id;sensor_type;location;lat;lon;timestamp;pressure;altitude;pressure_sealevel;temperature;humidity
31121;BME280;17770;45.966;13.632;2023-03-20T00:00:53;100940.50;;;16.96;57.58
31121;BME280;17770;45.966;13.632;2023-03-20T00:03:18;100937.91;;;16.96;58.00
31121;BME280;17770;45.966;13.632;2023-03-20T00:05:45;100939.69;;;16.96;57.70
31121;BME280;17770;45.966;13.632;2023-03-20T00:08:10;100939.69;;;16.96;57.96
31121;BME280;17770;45.966;13.632;2023-03-20T00:10:38;100936.31;;;16.93;58.24
31121;BME280;17770;45.966;13.632;2023-03-20T00:13:05;100935.38;;;16.94;57.65
31121;BME280;17770;45.966;13.632;2023-03-20T00:15:38;100926.69;;;16.94;57.81
31121;BME280;17770;45.966;13.632;2023-03-20T00:18:16;100928.47;;;16.93;58.17
31121;BME280;17770;45.966;13.632;2023-03-20T00:20:44;100930.22;;;16.93;57.84
31121;BME280;17770;45.966;13.632;2023-03-20T00:23:10;100928.47;;;16.93;58.00
31121;BME280;17770;45.966;13.632;2023-03-20T00:25:36;100930.16;;;16.94;58.12
31121;BME280;17770;45.966;13.632;2023-03-20T00:28:09;100927.63;;;16.93;57.92
31121;BME280;17770;45.966;13.632;2023-03-20T00:30:49;100920.75;;;16.92;57.70
31121;BME280;17770;45.966;13.632;2023-03-20T00:33:15;100921.56;;;16.92;58.06
31121;BME280;17770;45.966;13.632;2023-03-20T00:35:41;100920.75;;;16.92;57.59
31121;BME280;17770;45.966;13.632;2023-03-20T00:38:07;100925.94;;;16.92;58.02
31121;BME280;17770;45.966;13.632;2023-03-20T00:40:33;100918.13;;;16.92;58.08
31121;BME280;17770;45.966;13.632;2023-03-20T00:43:00;100918.22;;;16.90;57.64
31121;BME280;17770;45.966;13.632;2023-03-20T00:45:28;100915.59;;;16.90;57.77
31121;BME280;17770;45.966;13.632;2023-03-20T00:47:55;100915.59;;;16.90;57.64
31121;BME280;17770;45.966;13.632;2023-03-20T00:50:25;100906.06;;;16.89;57.66
31121;BME280;17770;45.966;13.632;2023-03-20T00:52:51;100910.41;;;16.90;57.91
31121;BME280;17770;45.966;13.632;2023-03-20T00:55:18;100903.47;;;16.89;58.20
31121;BME280;17770;45.966;13.632;2023-03-20T00:57:49;100902.56;;;16.90;57.95
31121;BME280;17770;45.966;13.632;2023-03-20T01:02:45;100898.25;;;16.89;57.73
31121;BME280;17770;45.966;13.632;2023-03-20T01:05:12;100903.47;;;16.89;57.75
31121;BME280;17770;45.966;13.632;2023-03-20T01:07:38;100899.97;;;16.90;58.21
31121;BME280;17770;45.966;13.632;2023-03-20T01:10:05;100892.22;;;16.89;57.56
31121;BME280;17770;45.966;13.632;2023-03-20T01:12:31;100887.03;;;16.89;57.68
31121;BME280;17770;45.966;13.632;2023-03-20T01:14:57;100887.03;;;16.89;58.01
31121;BME280;17770;45.966;13.632;2023-03-20T01:17:24;100884.44;;;16.87;57.53
31121;BME280;17770;45.966;13.632;2023-03-20T01:19:50;100876.63;;;16.87;58.06
31121;BME280;17770;45.966;13.632;2023-03-20T01:22:16;100876.63;;;16.87;57.73
31121;BME280;17770;45.966;13.632;2023-03-20T01:24:42;100874.03;;;16.87;58.12
31121;BME280;17770;45.966;13.632;2023-03-20T01:27:13;100869.75;;;16.86;57.76
31121;BME280;17770;45.966;13.632;2023-03-20T01:29:40;100868.81;;;16.87;57.88
31121;BME280;17770;45.966;13.632;2023-03-20T01:32:11;100870.59;;;16.87;57.75
31121;BME280;17770;45.966;13.632;2023-03-20T01:34:37;100862.78;;;16.87;57.44
31121;BME280;17770;45.966;13.632;2023-03-20T01:37:05;100868.00;;;16.87;57.64
31121;BME280;17770;45.966;13.632;2023-03-20T01:39:34;100868.91;;;16.86;57.82
31121;BME280;17770;45.966;13.632;2023-03-20T01:42:01;100860.25;;;16.85;57.91
31121;BME280;17770;45.966;13.632;2023-03-20T01:44:30;100861.09;;;16.86;58.05
31121;BME280;17770;45.966;13.632;2023-03-20T01:46:57;100868.06;;;16.85;58.09
31121;BME280;17770;45.966;13.632;2023-03-20T01:51:53;100851.59;;;16.85;57.47
31121;BME280;17770;45.966;13.632;2023-03-20T01:56:59;100852.53;;;16.84;58.21
31121;BME280;17770;45.966;13.632;2023-03-20T01:59:28;100846.38;;;16.85;58.27
31121;BME280;17770;45.966;13.632;2023-03-20T02:01:56;100845.53;;;16.84;57.59
31121;BME280;17770;45.966;13.632;2023-03-20T02:04:25;100847.31;;;16.84;58.04
31121;BME280;17770;45.966;13.632;2023-03-20T02:06:55;100843.84;;;16.83;58.06
31121;BME280;17770;45.966;13.632;2023-03-20T02:09:37;100843.00;;;16.83;57.68
31121;BME280;17770;45.966;13.632;2023-03-20T02:12:07;100841.31;;;16.82;57.91
31121;BME280;17770;45.966;13.632;2023-03-20T02:14:33;100843.00;;;16.83;57.83
31121;BME280;17770;45.966;13.632;2023-03-20T02:17:11;100839.53;;;16.82;57.67
31121;BME280;17770;45.966;13.632;2023-03-20T02:30:15;100843.94;;;16.82;57.58
31121;BME280;17770;45.966;13.632;2023-03-20T02:45:15;100830.97;;;16.80;58.05
31121;BME280;17770;45.966;13.632;2023-03-20T02:47:51;100833.59;;;16.80;57.68
31121;BME280;17770;45.966;13.632;2023-03-20T02:50:32;100838.78;;;16.80;57.65
31121;BME280;17770;45.966;13.632;2023-03-20T02:58:29;100837.09;;;16.79;58.07
31121;BME280;17770;45.966;13.632;2023-03-20T03:01:08;100835.41;;;16.78;57.81
31121;BME280;17770;45.966;13.632;2023-03-20T03:03:37;100835.41;;;16.78;57.86
31121;BME280;17770;45.966;13.632;2023-03-20T03:08:54;100836.31;;;16.77;57.90
31121;BME280;17770;45.966;13.632;2023-03-20T03:11:20;100839.75;;;16.78;57.75
31121;BME280;17770;45.966;13.632;2023-03-20T03:13:50;100830.28;;;16.77;57.75
31121;BME280;17770;45.966;13.632;2023-03-20T03:16:23;100831.94;;;16.78;57.60
31121;BME280;17770;45.966;13.632;2023-03-20T03:18:54;100831.94;;;16.78;57.67
31121;BME280;17770;45.966;13.632;2023-03-20T03:21:23;100834.56;;;16.78;58.03
31121;BME280;17770;45.966;13.632;2023-03-20T03:23:52;100832.88;;;16.77;57.82
31121;BME280;17770;45.966;13.632;2023-03-20T03:26:20;100836.31;;;16.77;58.15
31121;BME280;17770;45.966;13.632;2023-03-20T03:29:33;100835.47;;;16.77;58.23
31121;BME280;17770;45.966;13.632;2023-03-20T03:31:34;100832.03;;;16.76;57.66
31121;BME280;17770;45.966;13.632;2023-03-20T03:34:01;100836.47;;;16.74;58.13
31121;BME280;17770;45.966;13.632;2023-03-20T03:39:17;100838.16;;;16.75;58.03
31121;BME280;17770;45.966;13.632;2023-03-20T03:41:58;100832.09;;;16.75;58.30
31121;BME280;17770;45.966;13.632;2023-03-20T03:47:13;100838.25;;;16.74;57.81
31121;BME280;17770;45.966;13.632;2023-03-20T03:49:42;100840.78;;;16.75;57.68
31121;BME280;17770;45.966;13.632;2023-03-20T03:52:12;100839.91;;;16.75;57.64
31121;BME280;17770;45.966;13.632;2023-03-20T03:54:45;100842.53;;;16.75;57.84
31121;BME280;17770;45.966;13.632;2023-03-20T03:57:30;100846.06;;;16.74;57.77
31121;BME280;17770;45.966;13.632;2023-03-20T03:59:57;100840.00;;;16.73;57.72
31121;BME280;17770;45.966;13.632;2023-03-20T04:02:25;100848.72;;;16.72;57.72
31121;BME280;17770;45.966;13.632;2023-03-20T04:04:51;100835.72;;;16.72;58.23
31121;BME280;17770;45.966;13.632;2023-03-20T04:07:19;100845.28;;;16.72;57.70
31121;BME280;17770;45.966;13.632;2023-03-20T04:09:46;100847.03;;;16.71;57.99
31121;BME280;17770;45.966;13.632;2023-03-20T04:12:31;100849.63;;;16.71;58.02
31121;BME280;17770;45.966;13.632;2023-03-20T04:14:58;100850.47;;;16.72;58.15
31121;BME280;17770;45.966;13.632;2023-03-20T04:17:26;100846.16;;;16.71;58.13
31121;BME280;17770;45.966;13.632;2023-03-20T04:19:52;100847.94;;;16.70;58.19
31121;BME280;17770;45.966;13.632;2023-03-20T04:22:18;100851.38;;;16.71;58.07
31121;BME280;17770;45.966;13.632;2023-03-20T04:24:44;100843.56;;;16.71;58.17
31121;BME280;17770;45.966;13.632;2023-03-20T04:27:10;100852.31;;;16.70;57.88
31121;BME280;17770;45.966;13.632;2023-03-20T04:29:39;100848.84;;;16.69;57.74
31121;BME280;17770;45.966;13.632;2023-03-20T04:32:40;100848.03;;;16.69;58.15
31121;BME280;17770;45.966;13.632;2023-03-20T04:35:33;100841.97;;;16.68;57.89
31121;BME280;17770;45.966;13.632;2023-03-20T04:38:04;100848.84;;;16.69;58.32
31121;BME280;17770;45.966;13.632;2023-03-20T04:40:32;100848.03;;;16.69;58.04
31121;BME280;17770;45.966;13.632;2023-03-20T04:42:58;100846.25;;;16.69;57.56
31121;BME280;17770;45.966;13.632;2023-03-20T04:45:24;100844.56;;;16.68;57.69
31121;BME280;17770;45.966;13.632;2023-03-20T04:47:50;100850.63;;;16.69;58.05
31121;BME280;17770;45.966;13.632;2023-03-20T04:50:19;100844.56;;;16.68;58.21
31121;BME280;17770;45.966;13.632;2023-03-20T04:52:45;100848.03;;;16.69;57.82
31121;BME280;17770;45.966;13.632;2023-03-20T04:55:12;100854.06;;;16.69;58.31
31121;BME280;17770;45.966;13.632;2023-03-20T04:57:37;100854.13;;;16.68;57.79
31121;BME280;17770;45.966;13.632;2023-03-20T05:00:04;100848.09;;;16.67;58.14
31121;BME280;17770;45.966;13.632;2023-03-20T05:02:31;100849.00;;;16.66;57.66
31121;BME280;17770;45.966;13.632;2023-03-20T05:04:57;100846.31;;;16.68;57.78
31121;BME280;17770;45.966;13.632;2023-03-20T05:07:23;100848.09;;;16.67;57.94
31121;BME280;17770;45.966;13.632;2023-03-20T05:10:09;100849.84;;;16.67;57.80
31121;BME280;17770;45.966;13.632;2023-03-20T05:12:45;100843.88;;;16.65;57.81
31121;BME280;17770;45.966;13.632;2023-03-20T05:15:40;100841.25;;;16.65;58.20
31121;BME280;17770;45.966;13.632;2023-03-20T05:18:39;100842.94;;;16.66;57.86
31121;BME280;17770;45.966;13.632;2023-03-20T05:21:14;100840.31;;;16.66;57.97
31121;BME280;17770;45.966;13.632;2023-03-20T05:24:09;100837.81;;;16.64;57.63
31121;BME280;17770;45.966;13.632;2023-03-20T05:26:53;100838.66;;;16.65;58.27
31121;BME280;17770;45.966;13.632;2023-03-20T05:29:33;100833.44;;;16.65;58.44
31121;BME280;17770;45.966;13.632;2023-03-20T05:32:18;100836.06;;;16.65;57.87
31121;BME280;17770;45.966;13.632;2023-03-20T05:35:07;100835.19;;;16.64;58.12
31121;BME280;17770;45.966;13.632;2023-03-20T05:37:45;100845.63;;;16.64;57.97
31121;BME280;17770;45.966;13.632;2023-03-20T05:40:30;100836.13;;;16.63;58.00
31121;BME280;17770;45.966;13.632;2023-03-20T05:43:10;100833.59;;;16.62;58.23
31121;BME280;17770;45.966;13.632;2023-03-20T05:45:56;100838.72;;;16.63;58.33
31121;BME280;17770;45.966;13.632;2023-03-20T05:48:55;100842.19;;;16.64;58.27
31121;BME280;17770;45.966;13.632;2023-03-20T05:51:50;100837.88;;;16.63;58.43
31121;BME280;17770;45.966;13.632;2023-03-20T05:54:31;100838.72;;;16.63;57.85
31121;BME280;17770;45.966;13.632;2023-03-20T05:57:26;100831.78;;;16.64;58.28
31121;BME280;17770;45.966;13.632;2023-03-20T06:00:04;100834.44;;;16.62;57.97
31121;BME280;17770;45.966;13.632;2023-03-20T06:02:39;100837.06;;;16.62;58.10
31121;BME280;17770;45.966;13.632;2023-03-20T06:05:25;100842.25;;;16.62;58.22
31121;BME280;17770;45.966;13.632;2023-03-20T06:07:51;100848.28;;;16.63;58.24
31121;BME280;17770;45.966;13.632;2023-03-20T06:10:18;100851.75;;;16.63;58.32
31121;BME280;17770;45.966;13.632;2023-03-20T06:12:45;100852.69;;;16.62;58.07
31121;BME280;17770;45.966;13.632;2023-03-20T06:15:12;100861.38;;;16.61;58.47
31121;BME280;17770;45.966;13.632;2023-03-20T06:17:42;100852.75;;;16.61;57.85
31121;BME280;17770;45.966;13.632;2023-03-20T06:20:12;100862.25;;;16.62;57.97
31121;BME280;17770;45.966;13.632;2023-03-20T06:22:38;100859.72;;;16.60;57.94
31121;BME280;17770;45.966;13.632;2023-03-20T06:25:04;100859.72;;;16.60;58.09
31121;BME280;17770;45.966;13.632;2023-03-20T06:27:35;100862.31;;;16.60;57.71
31121;BME280;17770;45.966;13.632;2023-03-20T06:30:01;100863.22;;;16.59;58.23
31121;BME280;17770;45.966;13.632;2023-03-20T06:32:31;100859.72;;;16.60;57.90
31121;BME280;17770;45.966;13.632;2023-03-20T06:34:59;100865.78;;;16.61;58.28
31121;BME280;17770;45.966;13.632;2023-03-20T06:37:25;100858.84;;;16.60;58.40
31121;BME280;17770;45.966;13.632;2023-03-20T06:39:58;100860.59;;;16.59;58.25
31121;BME280;17770;45.966;13.632;2023-03-20T06:42:24;100860.59;;;16.59;58.40
31121;BME280;17770;45.966;13.632;2023-03-20T06:44:51;100859.84;;;16.57;58.06
31121;BME280;17770;45.966;13.632;2023-03-20T06:47:35;100866.75;;;16.58;58.35
31121;BME280;17770;45.966;13.632;2023-03-20T06:50:01;100869.34;;;16.58;58.32
31121;BME280;17770;45.966;13.632;2023-03-20T06:52:29;100865.06;;;16.57;57.95
31121;BME280;17770;45.966;13.632;2023-03-20T06:55:14;100874.56;;;16.58;58.43
31121;BME280;17770;45.966;13.632;2023-03-20T06:57:40;100876.31;;;16.58;57.96
31121;BME280;17770;45.966;13.632;2023-03-20T07:00:06;100874.63;;;16.57;58.41
31121;BME280;17770;45.966;13.632;2023-03-20T07:02:34;100879.75;;;16.58;58.36
31121;BME280;17770;45.966;13.632;2023-03-20T07:05:00;100885.03;;;16.57;57.81
31121;BME280;17770;45.966;13.632;2023-03-20T07:07:27;100881.44;;;16.59;57.98
31121;BME280;17770;45.966;13.632;2023-03-20T07:09:53;100881.44;;;16.59;58.19
31121;BME280;17770;45.966;13.632;2023-03-20T07:12:19;100884.13;;;16.58;58.18
31121;BME280;17770;45.966;13.632;2023-03-20T07:14:45;100885.91;;;16.57;57.74
31121;BME280;17770;45.966;13.632;2023-03-20T07:17:16;100885.97;;;16.56;57.75
31121;BME280;17770;45.966;13.632;2023-03-20T07:19:42;100887.72;;;16.55;58.27
31121;BME280;17770;45.966;13.632;2023-03-20T07:22:11;100882.44;;;16.57;58.36
31121;BME280;17770;45.966;13.632;2023-03-20T07:24:41;100890.19;;;16.58;57.79
31121;BME280;17770;45.966;13.632;2023-03-20T07:27:10;100888.50;;;16.57;58.40
31121;BME280;17770;45.966;13.632;2023-03-20T07:29:36;100893.72;;;16.57;57.76
31121;BME280;17770;45.966;13.632;2023-03-20T07:32:07;100898.91;;;16.57;58.32
31121;BME280;17770;45.966;13.632;2023-03-20T07:34:37;100903.34;;;16.55;58.23
31121;BME280;17770;45.966;13.632;2023-03-20T07:37:03;100911.09;;;16.57;58.41
31121;BME280;17770;45.966;13.632;2023-03-20T07:39:31;100910.22;;;16.56;58.34
31121;BME280;17770;45.966;13.632;2023-03-20T07:42:21;100918.97;;;16.55;58.26
31121;BME280;17770;45.966;13.632;2023-03-20T07:44:57;100922.41;;;16.56;57.91
31121;BME280;17770;45.966;13.632;2023-03-20T07:47:23;100920.63;;;16.56;58.54
31121;BME280;17770;45.966;13.632;2023-03-20T07:49:49;100924.25;;;16.54;58.36
31121;BME280;17770;45.966;13.632;2023-03-20T07:52:14;100911.16;;;16.55;58.21
31121;BME280;17770;45.966;13.632;2023-03-20T07:54:41;100922.47;;;16.54;57.80
31121;BME280;17770;45.966;13.632;2023-03-20T07:57:07;100912.91;;;16.55;58.21
31121;BME280;17770;45.966;13.632;2023-03-20T07:59:33;100924.09;;;16.57;58.05
31121;BME280;17770;45.966;13.632;2023-03-20T08:01:59;100917.22;;;16.56;57.94
31121;BME280;17770;45.966;13.632;2023-03-20T08:04:25;100928.53;;;16.55;58.27
31121;BME280;17770;45.966;13.632;2023-03-20T08:06:51;100923.38;;;16.53;58.40
31121;BME280;17770;45.966;13.632;2023-03-20T08:09:17;100925.91;;;16.55;58.40
31121;BME280;17770;45.966;13.632;2023-03-20T08:11:42;100928.53;;;16.55;58.04
31121;BME280;17770;45.966;13.632;2023-03-20T08:14:08;100931.28;;;16.52;57.98
31121;BME280;17770;45.966;13.632;2023-03-20T08:16:35;100928.53;;;16.55;58.14
31121;BME280;17770;45.966;13.632;2023-03-20T08:19:01;100927.63;;;16.56;58.39
31121;BME280;17770;45.966;13.632;2023-03-20T08:21:28;100925.13;;;16.53;57.90
31121;BME280;17770;45.966;13.632;2023-03-20T08:23:54;100927.66;;;16.54;58.35
31121;BME280;17770;45.966;13.632;2023-03-20T08:26:20;100926.00;;;16.53;58.13
31121;BME280;17770;45.966;13.632;2023-03-20T08:28:46;100920.72;;;16.55;58.43
31121;BME280;17770;45.966;13.632;2023-03-20T08:31:12;100937.19;;;16.55;57.81
31121;BME280;17770;45.966;13.632;2023-03-20T08:33:38;100928.53;;;16.55;58.43
31121;BME280;17770;45.966;13.632;2023-03-20T08:36:04;100930.25;;;16.56;58.07
31121;BME280;17770;45.966;13.632;2023-03-20T08:38:30;100933.72;;;16.55;58.35
31121;BME280;17770;45.966;13.632;2023-03-20T08:40:56;100935.44;;;16.56;58.62
31121;BME280;17770;45.966;13.632;2023-03-20T08:43:22;100936.34;;;16.55;58.51
31121;BME280;17770;45.966;13.632;2023-03-20T08:45:48;100935.44;;;16.56;58.32
31121;BME280;17770;45.966;13.632;2023-03-20T08:48:14;100934.53;;;16.57;58.09
31121;BME280;17770;45.966;13.632;2023-03-20T08:50:41;100939.78;;;16.55;58.55
31121;BME280;17770;45.966;13.632;2023-03-20T08:53:06;100942.41;;;16.55;58.34
31121;BME280;17770;45.966;13.632;2023-03-20T08:55:32;100935.44;;;16.56;58.07
31121;BME280;17770;45.966;13.632;2023-03-20T08:57:58;100940.66;;;16.56;58.03
31121;BME280;17770;45.966;13.632;2023-03-20T09:00:24;100940.66;;;16.56;58.69
31121;BME280;17770;45.966;13.632;2023-03-20T09:02:50;100936.25;;;16.56;58.47
31121;BME280;17770;45.966;13.632;2023-03-20T09:05:16;100939.72;;;16.57;58.54
31121;BME280;17770;45.966;13.632;2023-03-20T09:07:42;100935.38;;;16.57;58.07
31121;BME280;17770;45.966;13.632;2023-03-20T09:10:08;100939.66;;;16.58;58.40
31121;BME280;17770;45.966;13.632;2023-03-20T09:12:34;100936.19;;;16.58;58.27
31121;BME280;17770;45.966;13.632;2023-03-20T09:15:01;100942.25;;;16.58;58.00
31121;BME280;17770;45.966;13.632;2023-03-20T09:17:27;100939.66;;;16.58;58.21
31121;BME280;17770;45.966;13.632;2023-03-20T09:19:53;100939.66;;;16.58;58.01
31121;BME280;17770;45.966;13.632;2023-03-20T09:22:18;100935.38;;;16.57;58.62
31121;BME280;17770;45.966;13.632;2023-03-20T09:24:45;100939.59;;;16.60;58.34
31121;BME280;17770;45.966;13.632;2023-03-20T09:27:11;100942.19;;;16.60;58.16
31121;BME280;17770;45.966;13.632;2023-03-20T09:29:41;100940.44;;;16.60;57.96
31121;BME280;17770;45.966;13.632;2023-03-20T09:32:11;100945.66;;;16.60;58.02
31121;BME280;17770;45.966;13.632;2023-03-20T09:34:37;100941.28;;;16.61;58.00
31121;BME280;17770;45.966;13.632;2023-03-20T09:37:03;100943.03;;;16.60;58.13
31121;BME280;17770;45.966;13.632;2023-03-20T09:39:29;100940.38;;;16.62;57.95
31121;BME280;17770;45.966;13.632;2023-03-20T09:41:55;100937.75;;;16.62;58.32
31121;BME280;17770;45.966;13.632;2023-03-20T09:44:43;100937.75;;;16.62;58.57
31121;BME280;17770;45.966;13.632;2023-03-20T09:52:15;100941.22;;;16.62;58.28
31121;BME280;17770;45.966;13.632;2023-03-20T09:54:52;100934.22;;;16.63;58.44
31121;BME280;17770;45.966;13.632;2023-03-20T09:57:20;100934.16;;;16.64;57.89
31121;BME280;17770;45.966;13.632;2023-03-20T09:59:47;100941.97;;;16.64;57.97
31121;BME280;17770;45.966;13.632;2023-03-20T10:02:14;100938.53;;;16.64;58.54
31121;BME280;17770;45.966;13.632;2023-03-20T10:04:45;100942.81;;;16.65;58.39
31121;BME280;17770;45.966;13.632;2023-03-20T10:07:12;100941.06;;;16.65;58.10
31121;BME280;17770;45.966;13.632;2023-03-20T10:09:40;100935.88;;;16.65;58.02
31121;BME280;17770;45.966;13.632;2023-03-20T10:12:09;100939.28;;;16.66;58.56
31121;BME280;17770;45.966;13.632;2023-03-20T10:14:48;100934.94;;;16.66;58.15
31121;BME280;17770;45.966;13.632;2023-03-20T10:17:27;100941.00;;;16.67;58.79
31121;BME280;17770;45.966;13.632;2023-03-20T10:19:57;100933.97;;;16.69;58.50
31121;BME280;17770;45.966;13.632;2023-03-20T10:22:31;100933.13;;;16.68;58.01
31121;BME280;17770;45.966;13.632;2023-03-20T10:27:30;100925.16;;;16.71;58.12
31121;BME280;17770;45.966;13.632;2023-03-20T10:35:27;100912.91;;;16.73;57.93
31121;BME280;17770;45.966;13.632;2023-03-20T10:40:42;100911.91;;;16.76;58.36
31121;BME280;17770;45.966;13.632;2023-03-20T10:43:10;100904.97;;;16.76;58.36
31121;BME280;17770;45.966;13.632;2023-03-20T10:45:45;100895.41;;;16.77;58.11
31121;BME280;17770;45.966;13.632;2023-03-20T10:48:19;100893.59;;;16.77;58.39
31121;BME280;17770;45.966;13.632;2023-03-20T10:50:47;100891.84;;;16.78;58.51
31121;BME280;17770;45.966;13.632;2023-03-20T10:53:40;100890.91;;;16.80;58.46
31121;BME280;17770;45.966;13.632;2023-03-20T10:56:04;100888.28;;;16.80;58.27
31121;BME280;17770;45.966;13.632;2023-03-20T10:58:32;100886.50;;;16.81;58.16
31121;BME280;17770;45.966;13.632;2023-03-20T11:01:00;100883.91;;;16.81;58.58
31121;BME280;17770;45.966;13.632;2023-03-20T11:03:27;100883.81;;;16.82;58.61
31121;BME280;17770;45.966;13.632;2023-03-20T11:05:58;100876.88;;;16.83;58.07
31121;BME280;17770;45.966;13.632;2023-03-20T11:08:29;100879.47;;;16.83;58.61
31121;BME280;17770;45.966;13.632;2023-03-20T11:10:59;100873.38;;;16.84;58.27
31121;BME280;17770;45.966;13.632;2023-03-20T11:13:28;100870.69;;;16.85;59.52
31121;BME280;17770;45.966;13.632;2023-03-20T11:15:55;100870.75;;;16.84;59.49
31121;BME280;17770;45.966;13.632;2023-03-20T11:18:23;100864.63;;;16.85;59.38
31121;BME280;17770;45.966;13.632;2023-03-20T11:20:55;100858.47;;;16.86;58.90
31121;BME280;17770;45.966;13.632;2023-03-20T11:23:26;100865.47;;;16.85;59.32
31121;BME280;17770;45.966;13.632;2023-03-20T11:26:12;100848.06;;;16.86;59.63
31121;BME280;17770;45.966;13.632;2023-03-20T11:28:41;100846.22;;;16.88;59.38
31121;BME280;17770;45.966;13.632;2023-03-20T11:33:39;100846.22;;;16.88;59.69
31121;BME280;17770;45.966;13.632;2023-03-20T11:36:11;100840.13;;;16.89;60.08
31121;BME280;17770;45.966;13.632;2023-03-20T11:38:44;100837.53;;;16.89;59.99
31121;BME280;17770;45.966;13.632;2023-03-20T11:44:02;100833.06;;;16.91;60.04
31121;BME280;17770;45.966;13.632;2023-03-20T11:46:28;100830.44;;;16.91;60.29
31121;BME280;17770;45.966;13.632;2023-03-20T11:49:01;100823.47;;;16.91;59.82
31121;BME280;17770;45.966;13.632;2023-03-20T11:51:28;100819.94;;;16.92;59.77
31121;BME280;17770;45.966;13.632;2023-03-20T11:54:01;100816.44;;;16.93;59.57
31121;BME280;17770;45.966;13.632;2023-03-20T11:56:29;100814.63;;;16.96;59.81
31121;BME280;17770;45.966;13.632;2023-03-20T12:01:22;100817.16;;;16.97;60.00
31121;BME280;17770;45.966;13.632;2023-03-20T12:06:21;100811.94;;;16.97;60.11
31121;BME280;17770;45.966;13.632;2023-03-20T12:08:55;100807.53;;;16.98;60.44
31121;BME280;17770;45.966;13.632;2023-03-20T12:12:11;100810.06;;;16.99;59.90
31121;BME280;17770;45.966;13.632;2023-03-20T12:14:16;100808.31;;;17.00;59.73
31121;BME280;17770;45.966;13.632;2023-03-20T12:16:45;100802.22;;;17.01;60.08
31121;BME280;17770;45.966;13.632;2023-03-20T12:19:15;100802.22;;;17.01;60.23
31121;BME280;17770;45.966;13.632;2023-03-20T12:22:00;100808.16;;;17.03;60.21
31121;BME280;17770;45.966;13.632;2023-03-20T12:29:37;100794.16;;;17.05;60.54
31121;BME280;17770;45.966;13.632;2023-03-20T12:32:09;100794.16;;;17.05;60.37
31121;BME280;17770;45.966;13.632;2023-03-20T12:34:41;100801.03;;;17.06;60.32
31121;BME280;17770;45.966;13.632;2023-03-20T12:37:09;100788.78;;;17.08;60.86
31121;BME280;17770;45.966;13.632;2023-03-20T12:39:37;100803.50;;;17.09;60.21
31121;BME280;17770;45.966;13.632;2023-03-20T12:47:01;100793.84;;;17.11;60.59
31121;BME280;17770;45.966;13.632;2023-03-20T12:49:51;100791.16;;;17.13;60.73
31121;BME280;17770;45.966;13.632;2023-03-20T12:52:25;100786.81;;;17.13;60.55
31121;BME280;17770;45.966;13.632;2023-03-20T12:57:35;100786.72;;;17.15;61.57
31121;BME280;17770;45.966;13.632;2023-03-20T13:02:33;100782.28;;;17.17;60.89
31121;BME280;17770;45.966;13.632;2023-03-20T13:05:13;100782.22;;;17.18;61.20
31121;BME280;17770;45.966;13.632;2023-03-20T13:10:18;100779.53;;;17.20;61.18
31121;BME280;17770;45.966;13.632;2023-03-20T13:18:09;100770.69;;;17.22;60.97
31121;BME280;17770;45.966;13.632;2023-03-20T13:20:47;100771.53;;;17.23;60.68
31121;BME280;17770;45.966;13.632;2023-03-20T13:28:10;100756.59;;;17.26;60.60
31121;BME280;17770;45.966;13.632;2023-03-20T13:38:02;100759.91;;;17.30;61.38
31121;BME280;17770;45.966;13.632;2023-03-20T13:40:33;100764.19;;;17.31;61.43
31121;BME280;17770;45.966;13.632;2023-03-20T13:48:03;100749.31;;;17.33;61.56
31121;BME280;17770;45.966;13.632;2023-03-20T13:53:11;100747.47;;;17.35;61.55
31121;BME280;17770;45.966;13.632;2023-03-20T14:03:44;100742.88;;;17.40;61.33
31121;BME280;17770;45.966;13.632;2023-03-20T14:06:17;100747.16;;;17.41;60.91
31121;BME280;17770;45.966;13.632;2023-03-20T14:08:47;100741.03;;;17.42;61.32
31121;BME280;17770;45.966;13.632;2023-03-20T14:13:49;100741.78;;;17.44;61.35
31121;BME280;17770;45.966;13.632;2023-03-20T14:16:16;100742.63;;;17.44;61.06
31121;BME280;17770;45.966;13.632;2023-03-20T14:18:44;100738.25;;;17.45;60.88
31121;BME280;17770;45.966;13.632;2023-03-20T14:21:13;100739.97;;;17.46;60.33
31121;BME280;17770;45.966;13.632;2023-03-20T14:28:59;100738.13;;;17.48;61.29
31121;BME280;17770;45.966;13.632;2023-03-20T14:31:28;100734.59;;;17.49;60.79
31121;BME280;17770;45.966;13.632;2023-03-20T14:34:01;100731.97;;;17.49;61.71
31121;BME280;17770;45.966;13.632;2023-03-20T14:57:47;100736.81;;;17.56;61.28
31121;BME280;17770;45.966;13.632;2023-03-20T15:00:17;100738.41;;;17.59;62.77
31121;BME280;17770;45.966;13.632;2023-03-20T15:02:44;100739.34;;;17.58;61.83
31121;BME280;17770;45.966;13.632;2023-03-20T15:05:24;100750.63;;;17.58;61.44
31121;BME280;17770;45.966;13.632;2023-03-20T15:07:50;100745.41;;;17.58;61.40
31121;BME280;17770;45.966;13.632;2023-03-20T15:10:16;100745.31;;;17.60;62.31
31121;BME280;17770;45.966;13.632;2023-03-20T15:12:42;100750.53;;;17.60;62.03
31121;BME280;17770;45.966;13.632;2023-03-20T15:15:28;100752.22;;;17.61;60.82
31121;BME280;17770;45.966;13.632;2023-03-20T15:18:02;100755.69;;;17.61;61.37
31121;BME280;17770;45.966;13.632;2023-03-20T15:20:28;100753.06;;;17.61;61.42
31121;BME280;17770;45.966;13.632;2023-03-20T15:22:55;100754.75;;;17.62;61.73
31121;BME280;17770;45.966;13.632;2023-03-20T15:25:22;100756.44;;;17.63;61.61
31121;BME280;17770;45.966;13.632;2023-03-20T15:27:49;100753.84;;;17.63;61.88